createdAt,value
2017-12-21T00:02:14.888Z,97183.28
2017-12-21T00:04:48.611Z,97175.63
2017-12-21T00:07:18.547Z,97173.51
2017-12-21T00:09:51.433Z,97179.80
2017-12-21T00:12:20.466Z,97166.81
2017-12-21T00:14:49.508Z,97170.18
2017-12-21T00:17:21.050Z,97175.37
2017-12-21T00:22:44.083Z,97167.48
2017-12-21T00:25:15.882Z,97151.44
2017-12-21T00:30:33.046Z,97177.94
2017-12-21T00:33:05.831Z,97182.90
2017-12-21T00:35:34.877Z,97180.05
2017-12-21T00:43:15.961Z,97183.44
2017-12-21T00:46:08.815Z,97175.41
2017-12-21T00:48:37.897Z,97174.16
2017-12-21T00:51:08.934Z,97178.45
2017-12-21T00:53:45.763Z,97184.22
2017-12-21T00:56:14.785Z,97186.45
2017-12-21T00:58:43.856Z,97182.67
2017-12-21T01:01:34.230Z,97186.55
2017-12-21T01:04:08.526Z,97196.02
2017-12-21T01:06:37.558Z,97200.72
2017-12-21T01:09:06.601Z,97199.05
2017-12-21T01:11:35.648Z,97196.42
2017-12-21T01:16:43.834Z,97195.92
2017-12-21T01:19:34.464Z,97200.61
2017-12-21T01:24:42.846Z,97192.64
2017-12-21T01:29:50.079Z,97202.84
2017-12-21T01:34:54.578Z,97206.11
2017-12-21T01:37:23.622Z,97206.69
2017-12-21T01:39:52.686Z,97198.00
2017-12-21T01:42:25.461Z,97206.27
2017-12-21T01:44:54.497Z,97199.92
2017-12-21T01:50:02.718Z,97197.20
2017-12-21T01:52:33.677Z,97202.39
2017-12-21T01:55:02.730Z,97203.77
2017-12-21T01:57:33.670Z,97193.45
2017-12-21T02:00:04.759Z,97191.91
2017-12-21T02:02:33.790Z,97194.64
2017-12-21T02:05:02.862Z,97187.48
2017-12-21T02:07:32.878Z,97178.22
2017-12-21T02:10:09.410Z,97177.27
2017-12-21T02:12:38.569Z,97178.73
2017-12-21T02:15:10.966Z,97198.29
2017-12-21T02:17:40.010Z,97215.70
2017-12-21T02:20:09.076Z,97217.75
2017-12-21T02:22:38.127Z,97219.70
2017-12-21T02:25:07.501Z,97221.25
2017-12-21T02:27:36.549Z,97227.14
2017-12-21T02:30:05.622Z,97216.95
2017-12-21T02:32:34.634Z,97217.72
2017-12-21T02:35:04.595Z,97224.52
2017-12-21T02:37:33.645Z,97220.12
2017-12-21T02:40:02.689Z,97224.25
2017-12-21T02:42:31.775Z,97224.00
2017-12-21T02:45:01.816Z,97221.02
2017-12-21T02:47:30.850Z,97212.77
2017-12-21T02:52:35.087Z,97203.70
2017-12-21T02:55:04.121Z,97206.61
2017-12-21T02:57:33.157Z,97200.62
2017-12-21T03:00:02.210Z,97199.98
2017-12-21T03:02:31.257Z,97196.95
2017-12-21T03:05:00.294Z,97194.86
2017-12-21T03:07:29.360Z,97186.70
2017-12-21T03:09:58.403Z,97187.47
2017-12-21T03:12:28.653Z,97183.59
2017-12-21T03:14:57.690Z,97191.48
2017-12-21T03:17:30.981Z,97198.28
2017-12-21T03:20:05.576Z,97198.09
2017-12-21T03:22:35.499Z,97198.27
2017-12-21T03:25:04.537Z,97203.62
2017-12-21T03:27:50.858Z,97199.65
2017-12-21T03:32:59.092Z,97190.87
2017-12-21T03:35:31.834Z,97178.92
2017-12-21T03:38:00.882Z,97173.91
2017-12-21T03:40:36.417Z,97168.64
2017-12-21T03:43:05.453Z,97156.02
2017-12-21T03:45:38.248Z,97152.42
2017-12-21T03:48:07.294Z,97158.53
2017-12-21T03:53:11.734Z,97163.19
2017-12-21T03:58:28.938Z,97176.62
2017-12-21T04:03:33.956Z,97180.11
2017-12-21T04:06:03.895Z,97183.90
2017-12-21T04:08:32.946Z,97182.13
2017-12-21T04:16:25.901Z,97178.12
2017-12-21T04:18:55.866Z,97178.73
2017-12-21T04:21:24.906Z,97180.47
2017-12-21T04:26:29.217Z,97176.81
2017-12-21T04:31:34.930Z,97179.57
2017-12-21T04:34:04.907Z,97181.78
2017-12-21T04:36:33.987Z,97180.02
2017-12-21T04:39:04.143Z,97181.91
2017-12-21T04:41:33.173Z,97191.59
2017-12-21T04:44:16.749Z,97197.72
2017-12-21T04:46:45.777Z,97202.91
2017-12-21T04:49:14.994Z,97203.30
2017-12-21T04:51:44.038Z,97204.86
2017-12-21T04:54:13.076Z,97199.41
2017-12-21T04:56:47.480Z,97185.88
2017-12-21T04:59:17.470Z,97185.85
2017-12-21T05:01:46.698Z,97178.31
2017-12-21T05:04:17.639Z,97172.39
2017-12-21T05:06:46.692Z,97181.30
2017-12-21T05:09:17.647Z,97180.08
2017-12-21T05:14:23.622Z,97185.66
2017-12-21T05:16:58.501Z,97184.83
2017-12-21T05:19:27.541Z,97193.80
2017-12-21T05:24:34.415Z,97212.46
2017-12-21T05:27:17.028Z,97216.15
2017-12-21T05:29:46.125Z,97209.03
2017-12-21T05:32:16.119Z,97203.00
2017-12-21T05:34:50.855Z,97198.13
2017-12-21T05:37:19.902Z,97204.37
2017-12-21T05:39:48.951Z,97202.69
2017-12-21T05:42:22.340Z,97202.20
2017-12-21T05:44:51.386Z,97202.23
2017-12-21T05:47:26.022Z,97204.03
2017-12-21T05:49:55.194Z,97215.05
2017-12-21T05:52:28.047Z,97212.45
2017-12-21T05:54:57.088Z,97215.38
2017-12-21T06:00:01.399Z,97216.98
2017-12-21T06:02:35.202Z,97221.44
2017-12-21T06:07:44.485Z,97216.39
2017-12-21T06:12:51.006Z,97217.68
2017-12-21T06:15:20.956Z,97221.84
2017-12-21T06:17:49.993Z,97226.24
2017-12-21T06:20:20.242Z,97229.19
2017-12-21T06:29:25.451Z,97224.25
2017-12-21T06:31:55.445Z,97222.74
2017-12-21T06:34:24.515Z,97221.88
2017-12-21T06:36:58.142Z,97213.00
2017-12-21T06:39:27.198Z,97215.78
2017-12-21T06:41:56.238Z,97211.98
2017-12-21T06:44:25.298Z,97219.64
2017-12-21T06:47:06.808Z,97221.72
2017-12-21T06:49:36.857Z,97217.27
2017-12-21T06:52:11.683Z,97229.45
2017-12-21T06:54:48.744Z,97232.14
2017-12-21T06:57:17.783Z,97228.66
2017-12-21T06:59:48.504Z,97227.02
2017-12-21T07:02:17.570Z,97239.16
2017-12-21T07:04:46.602Z,97247.02
2017-12-21T07:07:15.637Z,97258.33
2017-12-21T07:09:44.690Z,97257.63
2017-12-21T07:12:13.746Z,97240.47
2017-12-21T07:14:42.832Z,97231.39
2017-12-21T07:17:12.004Z,97231.69
2017-12-21T07:19:57.046Z,97233.94
2017-12-21T07:22:26.098Z,97219.41
2017-12-21T07:24:55.157Z,97222.59
2017-12-21T07:27:24.197Z,97214.45
2017-12-21T07:29:54.254Z,97218.45
2017-12-21T07:32:26.166Z,97215.41
2017-12-21T07:34:59.494Z,97218.20
2017-12-21T07:37:28.542Z,97220.86
2017-12-21T07:42:42.426Z,97224.22
2017-12-21T07:45:12.384Z,97219.34
2017-12-21T07:47:42.460Z,97223.29
2017-12-21T07:50:12.918Z,97224.56
2017-12-21T07:55:18.186Z,97226.86
2017-12-21T07:57:47.517Z,97220.77
2017-12-21T08:00:16.545Z,97219.61
2017-12-21T08:05:20.783Z,97220.87
2017-12-21T08:07:49.845Z,97219.17
2017-12-21T08:10:19.403Z,97223.42
2017-12-21T08:15:25.623Z,97230.76
2017-12-21T08:20:35.566Z,97227.22
2017-12-21T08:23:04.739Z,97227.84
2017-12-21T08:25:33.765Z,97239.42
2017-12-21T08:28:02.817Z,97249.68
2017-12-21T08:30:31.853Z,97247.44
2017-12-21T08:35:36.131Z,97244.16
2017-12-21T08:38:12.449Z,97238.30
2017-12-21T08:40:42.437Z,97235.99
2017-12-21T08:43:12.292Z,97250.77
2017-12-21T08:45:41.348Z,97242.84
2017-12-21T08:48:11.334Z,97242.63
2017-12-21T08:50:40.377Z,97241.02
2017-12-21T08:53:09.411Z,97242.98
2017-12-21T08:55:38.464Z,97246.55
2017-12-21T09:00:42.670Z,97238.89
2017-12-21T09:03:13.729Z,97229.57
2017-12-21T09:05:42.742Z,97228.33
2017-12-21T09:08:25.719Z,97233.72
2017-12-21T09:11:21.665Z,97236.70
2017-12-21T09:13:56.190Z,97233.79
2017-12-21T09:16:25.217Z,97226.12
2017-12-21T09:18:59.076Z,97233.39
2017-12-21T09:21:28.234Z,97238.06
2017-12-21T09:24:18.851Z,97232.62
2017-12-21T09:26:47.885Z,97238.16
2017-12-21T09:29:24.262Z,97237.06
2017-12-21T09:32:04.313Z,97238.28
2017-12-21T09:34:33.355Z,97234.98
2017-12-21T09:37:24.991Z,97235.50
2017-12-21T09:39:59.301Z,97231.16
2017-12-21T09:42:28.606Z,97229.64
2017-12-21T09:44:57.822Z,97228.45
2017-12-21T09:47:26.850Z,97227.88
2017-12-21T09:50:01.656Z,97231.33
2017-12-21T09:52:30.682Z,97226.71
2017-12-21T09:55:07.346Z,97224.16
2017-12-21T09:57:36.378Z,97230.00
2017-12-21T10:00:19.835Z,97238.61
2017-12-21T10:03:24.786Z,97236.69
2017-12-21T10:06:24.797Z,97228.97
2017-12-21T10:09:11.032Z,97228.99
2017-12-21T10:11:40.077Z,97219.17
2017-12-21T10:16:44.349Z,97212.04
2017-12-21T10:19:14.325Z,97211.61
2017-12-21T10:21:43.389Z,97221.18
2017-12-21T10:24:21.086Z,97210.31
2017-12-21T10:26:50.120Z,97216.78
2017-12-21T10:31:55.344Z,97208.61
2017-12-21T10:34:24.581Z,97210.16
2017-12-21T10:36:54.294Z,97199.91
2017-12-21T10:39:23.285Z,97192.41
2017-12-21T10:41:52.334Z,97187.75
2017-12-21T10:44:21.358Z,97181.84
2017-12-21T10:46:50.388Z,97174.63
2017-12-21T10:49:38.661Z,97164.66
2017-12-21T10:52:46.511Z,97165.37
2017-12-21T10:55:33.813Z,97166.66
2017-12-21T10:58:02.843Z,97162.48
2017-12-21T11:00:41.621Z,97169.62
2017-12-21T11:03:10.662Z,97163.57
2017-12-21T11:05:47.468Z,97167.14
2017-12-21T11:08:24.256Z,97164.03
2017-12-21T11:10:53.302Z,97165.06
2017-12-21T11:13:46.818Z,97167.22
2017-12-21T11:16:15.850Z,97171.02
2017-12-21T11:18:45.773Z,97171.03
2017-12-21T11:21:44.242Z,97164.72
2017-12-21T11:24:27.685Z,97159.98
2017-12-21T11:26:56.745Z,97160.29
2017-12-21T11:29:26.052Z,97148.45
2017-12-21T11:31:54.568Z,97148.59
2017-12-21T11:34:37.842Z,97154.42
2017-12-21T11:37:06.345Z,97143.77
2017-12-21T11:39:47.327Z,97138.61
2017-12-21T11:42:46.548Z,97128.23
2017-12-21T11:45:27.189Z,97125.98
2017-12-21T11:47:55.733Z,97127.06
2017-12-21T11:50:24.911Z,97136.28
2017-12-21T11:53:14.951Z,97133.60
2017-12-21T11:55:53.982Z,97140.20
2017-12-21T11:58:22.503Z,97142.96
2017-12-21T12:01:01.309Z,97133.37
2017-12-21T12:03:29.864Z,97130.91
2017-12-21T12:06:07.722Z,97126.29
2017-12-21T12:08:37.118Z,97129.00
2017-12-21T12:11:07.622Z,97131.81
2017-12-21T12:13:48.860Z,97130.31
2017-12-21T12:16:17.384Z,97122.57
2017-12-21T12:19:13.048Z,97121.23
2017-12-21T12:21:45.352Z,97121.41
2017-12-21T12:24:14.764Z,97115.56
2017-12-21T12:27:00.536Z,97119.03
2017-12-21T12:29:29.048Z,97120.64
2017-12-21T12:32:14.966Z,97101.94
2017-12-21T12:34:48.793Z,97092.34
2017-12-21T12:37:17.315Z,97095.88
2017-12-21T12:39:45.802Z,97098.91
2017-12-21T12:42:14.332Z,97093.17
2017-12-21T12:44:44.820Z,97095.71
2017-12-21T12:47:14.241Z,97090.09
2017-12-21T12:50:14.010Z,97097.08
2017-12-21T12:53:08.267Z,97100.09
2017-12-21T12:55:46.145Z,97093.39
2017-12-21T12:58:14.741Z,97093.81
2017-12-21T13:00:43.274Z,97089.38
2017-12-21T13:03:15.277Z,97089.20
2017-12-21T13:06:13.419Z,97080.28
2017-12-21T13:09:10.597Z,97084.28
2017-12-21T13:11:47.996Z,97083.63
2017-12-21T13:14:17.576Z,97077.97
2017-12-21T13:16:53.416Z,97082.27
2017-12-21T13:19:22.029Z,97078.30
2017-12-21T13:21:50.532Z,97080.92
2017-12-21T13:24:19.037Z,97084.80
2017-12-21T13:26:47.562Z,97085.20
2017-12-21T13:29:16.064Z,97080.63
2017-12-21T13:32:15.237Z,97075.31
2017-12-21T13:34:52.493Z,97074.36
2017-12-21T13:37:21.044Z,97081.00
2017-12-21T13:40:13.873Z,97083.64
2017-12-21T13:42:42.385Z,97078.86
2017-12-21T13:45:29.258Z,97083.19
2017-12-21T13:48:09.513Z,97081.77
2017-12-21T13:50:38.059Z,97083.23
2017-12-21T13:53:32.772Z,97073.56
2017-12-21T13:56:34.531Z,97076.36
2017-12-21T13:59:10.057Z,97081.50
2017-12-21T14:01:40.609Z,97081.61
2017-12-21T14:04:20.723Z,97074.48
2017-12-21T14:06:49.320Z,97077.20
2017-12-21T14:09:38.837Z,97072.75
2017-12-21T14:12:27.407Z,97074.11
2017-12-21T14:15:10.625Z,97068.54
2017-12-21T14:17:39.124Z,97068.33
2017-12-21T14:20:16.448Z,97064.20
2017-12-21T14:22:45.204Z,97063.67
2017-12-21T14:25:13.733Z,97070.78
2017-12-21T14:27:42.253Z,97064.64
2017-12-21T14:30:25.097Z,97068.45
2017-12-21T14:32:53.601Z,97071.19
2017-12-21T14:35:35.708Z,97072.83
2017-12-21T14:38:11.645Z,97081.98
2017-12-21T14:40:40.209Z,97080.84
2017-12-21T14:43:32.996Z,97081.98
2017-12-21T14:46:06.860Z,97076.20
2017-12-21T14:48:35.385Z,97079.98
2017-12-21T14:51:03.960Z,97077.28
2017-12-21T14:53:36.023Z,97073.67
2017-12-21T14:56:35.339Z,97069.89
2017-12-21T14:59:05.771Z,97072.11
2017-12-21T15:01:35.234Z,97065.73
2017-12-21T15:04:09.166Z,97067.64
2017-12-21T15:06:37.665Z,97066.86
2017-12-21T15:09:07.125Z,97069.48
2017-12-21T15:11:35.668Z,97065.80
2017-12-21T15:14:04.181Z,97065.20
2017-12-21T15:16:35.656Z,97075.41
2017-12-21T15:19:12.562Z,97077.56
2017-12-21T15:21:41.106Z,97080.94
2017-12-21T15:24:35.818Z,97079.55
2017-12-21T15:27:31.336Z,97073.25
2017-12-21T15:30:06.897Z,97075.00
2017-12-21T15:32:35.401Z,97069.42
2017-12-21T15:35:04.868Z,97070.70
2017-12-21T15:37:33.421Z,97069.03
2017-12-21T15:40:03.178Z,97069.41
2017-12-21T15:42:35.562Z,97069.58
2017-12-21T15:45:05.039Z,97071.66
2017-12-21T15:47:35.457Z,97075.41
2017-12-21T15:50:07.439Z,97073.40
2017-12-21T15:52:36.081Z,97075.20
2017-12-21T15:55:35.669Z,97067.83
2017-12-21T15:58:04.317Z,97071.61
2017-12-21T16:00:39.678Z,97071.14
2017-12-21T16:03:10.102Z,97076.08
2017-12-21T16:05:38.620Z,97074.11
2017-12-21T16:08:09.105Z,97079.58
2017-12-21T16:10:37.624Z,97081.07
2017-12-21T16:13:06.144Z,97080.75
2017-12-21T16:15:35.612Z,97086.38
2017-12-21T16:18:06.116Z,97084.39
2017-12-21T16:20:34.642Z,97085.62
2017-12-21T16:23:11.184Z,97092.02
2017-12-21T16:25:39.689Z,97089.17
2017-12-21T16:28:08.196Z,97085.61
2017-12-21T16:30:36.745Z,97090.80
2017-12-21T16:33:13.112Z,97089.91
2017-12-21T16:35:41.748Z,97091.63
2017-12-21T16:38:34.366Z,97091.73
2017-12-21T16:41:10.385Z,97093.46
2017-12-21T16:43:38.890Z,97101.31
2017-12-21T16:46:09.527Z,97099.41
2017-12-21T16:48:38.034Z,97106.28
2017-12-21T16:51:26.104Z,97104.72
2017-12-21T16:53:54.617Z,97104.55
2017-12-21T16:56:23.128Z,97102.80
2017-12-21T16:58:51.663Z,97104.97
2017-12-21T17:01:35.162Z,97113.84
2017-12-21T17:04:03.709Z,97119.25
2017-12-21T17:06:32.221Z,97117.52
2017-12-21T17:09:01.694Z,97128.86
2017-12-21T17:11:35.354Z,97130.09
2017-12-21T17:16:36.765Z,97135.06
2017-12-21T17:19:29.261Z,97130.48
2017-12-21T17:22:16.926Z,97123.98
2017-12-21T17:24:46.347Z,97133.52
2017-12-21T17:27:14.874Z,97127.77
2017-12-21T17:29:43.440Z,97130.10
2017-12-21T17:32:13.932Z,97130.94
2017-12-21T17:34:42.465Z,97125.46
2017-12-21T17:37:14.681Z,97134.19
2017-12-21T17:39:43.199Z,97138.25
2017-12-21T17:42:11.787Z,97139.38
2017-12-21T17:44:40.321Z,97135.08
2017-12-21T17:47:08.808Z,97135.88
2017-12-21T17:49:37.365Z,97138.84
2017-12-21T17:52:09.646Z,97139.41
2017-12-21T17:54:38.194Z,97144.78
2017-12-21T17:57:10.274Z,97151.47
2017-12-21T17:59:38.994Z,97143.20
2017-12-21T18:02:07.656Z,97154.45
2017-12-21T18:04:36.212Z,97151.76
2017-12-21T18:07:06.672Z,97151.31
2017-12-21T18:09:35.240Z,97156.63
2017-12-21T18:12:03.783Z,97152.30
2017-12-21T18:14:35.242Z,97159.05
2017-12-21T18:17:14.233Z,97167.94
2017-12-21T18:19:42.777Z,97172.02
2017-12-21T18:22:11.306Z,97172.19
2017-12-21T18:24:39.824Z,97175.13
2017-12-21T18:27:08.483Z,97183.36
2017-12-21T18:29:37.021Z,97190.03
2017-12-21T18:32:05.528Z,97182.84
2017-12-21T18:34:44.224Z,97183.64
2017-12-21T18:37:12.824Z,97182.34
2017-12-21T18:39:41.341Z,97190.20
2017-12-21T18:42:09.979Z,97196.91
2017-12-21T18:44:42.800Z,97191.81
2017-12-21T18:47:11.304Z,97200.30
2017-12-21T18:49:41.859Z,97210.98
2017-12-21T18:52:11.417Z,97210.12
2017-12-21T18:54:39.924Z,97212.22
2017-12-21T18:57:08.482Z,97226.84
2017-12-21T18:59:40.801Z,97222.56
2017-12-21T19:02:09.361Z,97224.06
2017-12-21T19:04:37.901Z,97229.66
2017-12-21T19:07:06.408Z,97235.63
2017-12-21T19:09:34.972Z,97232.47
2017-12-21T19:12:03.495Z,97238.46
2017-12-21T19:14:32.021Z,97236.66
2017-12-21T19:17:00.585Z,97233.09
2017-12-21T19:19:29.102Z,97226.06
2017-12-21T19:22:01.742Z,97233.48
2017-12-21T19:24:37.827Z,97236.98
2017-12-21T19:27:06.383Z,97234.50
2017-12-21T19:29:49.981Z,97234.86
2017-12-21T19:32:18.648Z,97215.31
2017-12-21T19:34:52.582Z,97214.56
2017-12-21T19:37:34.218Z,97224.92
2017-12-21T19:40:02.730Z,97232.56
2017-12-21T19:42:39.153Z,97241.13
2017-12-21T19:45:08.662Z,97238.95
2017-12-21T19:47:50.629Z,97250.34
2017-12-21T19:50:20.074Z,97250.06
2017-12-21T19:52:49.490Z,97244.70
2017-12-21T19:55:18.071Z,97246.47
2017-12-21T19:57:46.597Z,97264.96
2017-12-21T20:00:18.513Z,97258.70
2017-12-21T20:02:51.143Z,97258.33
2017-12-21T20:05:20.632Z,97259.16
2017-12-21T20:07:52.810Z,97257.07
2017-12-21T20:10:24.257Z,97255.75
2017-12-21T20:12:53.696Z,97259.91
2017-12-21T20:15:24.117Z,97262.08
2017-12-21T20:17:54.679Z,97269.52
2017-12-21T20:20:23.197Z,97262.28
2017-12-21T20:22:55.866Z,97276.72
2017-12-21T20:25:24.469Z,97271.52
2017-12-21T20:27:53.880Z,97269.52
2017-12-21T20:30:24.906Z,97271.53
2017-12-21T20:33:11.585Z,97267.94
2017-12-21T20:35:40.207Z,97276.98
2017-12-21T20:38:18.229Z,97278.13
2017-12-21T20:40:53.888Z,97274.04
2017-12-21T20:43:22.404Z,97290.41
2017-12-21T20:46:00.952Z,97295.00
2017-12-21T20:48:29.481Z,97297.22
2017-12-21T20:51:11.652Z,97297.05
2017-12-21T20:53:40.209Z,97300.70
2017-12-21T20:56:27.033Z,97294.09
2017-12-21T20:59:03.913Z,97288.80
2017-12-21T21:01:32.433Z,97285.83
2017-12-21T21:04:01.025Z,97285.29
2017-12-21T21:06:29.640Z,97278.65
2017-12-21T21:09:03.701Z,97273.11
2017-12-21T21:11:32.241Z,97276.69
2017-12-21T21:14:00.843Z,97273.73
2017-12-21T21:16:29.293Z,97264.87
2017-12-21T21:19:03.618Z,97263.46
2017-12-21T21:21:33.113Z,97257.88
2017-12-21T21:24:01.625Z,97260.23
2017-12-21T21:26:42.213Z,97249.67
2017-12-21T21:29:21.535Z,97247.62
2017-12-21T21:31:50.046Z,97234.09
2017-12-21T21:34:19.556Z,97231.41
2017-12-21T21:36:48.056Z,97244.74
2017-12-21T21:39:24.709Z,97262.41
2017-12-21T21:41:53.240Z,97259.91
2017-12-21T21:44:25.154Z,97263.23
2017-12-21T21:46:57.057Z,97271.56
2017-12-21T21:49:25.628Z,97266.86
2017-12-21T21:52:25.163Z,97252.33
2017-12-21T21:54:57.454Z,97249.36
2017-12-21T21:57:25.956Z,97258.81
2017-12-21T22:00:15.708Z,97262.87
2017-12-21T22:02:55.070Z,97266.38
2017-12-21T22:05:25.497Z,97273.70
2017-12-21T22:08:16.106Z,97273.20
2017-12-21T22:10:55.146Z,97272.14
2017-12-21T22:13:24.568Z,97269.26
2017-12-21T22:15:54.069Z,97267.75
2017-12-21T22:18:26.231Z,97268.92
2017-12-21T22:20:54.740Z,97267.02
2017-12-21T22:23:25.193Z,97271.59
2017-12-21T22:25:55.637Z,97265.20
2017-12-21T22:28:25.115Z,97263.79
2017-12-21T22:31:01.733Z,97265.05
2017-12-21T22:33:30.249Z,97265.97
2017-12-21T22:36:11.283Z,97270.62
2017-12-21T22:38:39.793Z,97271.87
2017-12-21T22:41:10.221Z,97275.78
2017-12-21T22:43:38.737Z,97269.75
2017-12-21T22:46:25.022Z,97274.61
2017-12-21T22:49:02.984Z,97270.97
2017-12-21T22:51:31.506Z,97265.53
2017-12-21T22:54:24.616Z,97266.97
2017-12-21T22:57:03.664Z,97263.25
2017-12-21T22:59:32.213Z,97259.72
2017-12-21T23:02:24.867Z,97252.96
2017-12-21T23:04:56.840Z,97256.89
2017-12-21T23:07:25.355Z,97251.00
2017-12-21T23:10:24.804Z,97244.91
2017-12-21T23:13:24.837Z,97245.05
2017-12-21T23:15:57.197Z,97252.42
2017-12-21T23:18:25.734Z,97248.25
2017-12-21T23:21:21.112Z,97245.38
2017-12-21T23:23:57.441Z,97241.87
2017-12-21T23:26:26.000Z,97241.05
2017-12-21T23:28:54.478Z,97246.45
2017-12-21T23:31:26.653Z,97247.55
2017-12-21T23:34:02.533Z,97245.29
2017-12-21T23:36:31.061Z,97242.09
2017-12-21T23:39:12.882Z,97239.94
2017-12-21T23:41:41.414Z,97241.00
2017-12-21T23:44:20.725Z,97236.58
2017-12-21T23:46:49.272Z,97239.64
2017-12-21T23:49:25.168Z,97236.11
2017-12-21T23:51:53.687Z,97239.06
2017-12-21T23:54:22.194Z,97230.53
2017-12-21T23:56:51.604Z,97233.56
2017-12-21T23:59:20.148Z,97228.37
